Čačak-Preljina Airfield

LYCA · Central Serbia, Serbia

METAR的历史 LYCA · Čačak-Preljina Airfield

下面你可以看到过去几天的METARs。 选择年份以浏览从2007年开始的旧METAR。

2024年4月17日

时间 代码 天气 温度 能见度 天花板 METAR/SPECI
23:30
V
5 °C 10 km+ 3.300 ft Var Var 1 kt METAR LYKV 172130Z VRB01KT 9999 FEW025 BKN033 05/04 Q1006 NOSIG
23:00
V
4 °C 10 km+ - 170° 170° 2 kt METAR LYKV 172100Z 17002KT 9999 FEW025 SCT030 04/04 Q1005 NOSIG
22:30
V
5 °C 10 km+ - 170° 170° 2 kt METAR LYKV 172030Z 17002KT 9999 SCT033 05/04 Q1006 NOSIG
22:00
V
5 °C 10 km+ 3.700 ft 020° 020° 2 kt METAR LYKV 172000Z 02002KT 9999 BKN037 05/04 Q1006 NOSIG
21:30
V
5 °C 10 km+ 3.700 ft 360° 360° 0 kt METAR LYKV 171930Z 00000KT 9999 FEW020 BKN037 05/04 Q1006 NOSIG
21:00
V
5 °C 10 km+ 3.500 ft Var Var 1 kt METAR LYKV 171900Z VRB01KT 9999 FEW017 BKN035 05/04 Q1006 NOSIG
20:30
V
5 °C 10 km+ - 150° 150° 3 kt METAR LYKV 171830Z 15003KT 9999 FEW017 SCT035 05/04 Q1005 NOSIG
20:00
V
5 °C 10 km+ - Var Var 2 kt METAR LYKV 171800Z VRB02KT 9999 FEW010 SCT033 05/04 Q1005 NOSIG
19:30
V
5 °C 10 km+ 3.300 ft Var Var 1 kt METAR LYKV 171730Z VRB01KT 9999 SCT010 BKN033 05/04 Q1005 NOSIG
19:00
V
5 °C 10 km+ 3.300 ft 360° 360° 0 kt METAR LYKV 171700Z 00000KT 9999 SCT015 BKN033 05/04 Q1005 NOSIG
18:30
M
5 °C 10 km+ 2.300 ft Var Var 1 kt METAR LYKV 171630Z VRB01KT 9999 -RA SCT015 BKN023 05/04 Q1005 NOSIG
18:00
M
5 °C 10 km+ 2.300 ft Var Var 2 kt METAR LYKV 171600Z VRB02KT 9999 -RA SCT015 BKN023 05/04 Q1005 NOSIG
17:30
M
5 °C 10 km+ 2.300 ft 300° 300° 4 kt METAR LYKV 171530Z 30004KT 270V350 9999 SCT015 BKN023 05/03 Q1005 NOSIG
17:00
M
6 °C 10 km+ 2.300 ft 310° 310° 6 kt METAR LYKV 171500Z 31006KT 280V340 9999 SCT015 BKN023 06/03 Q1004 NOSIG
16:30
M
6 °C 10 km+ 2.300 ft 310° 310° 6 kt METAR LYKV 171430Z 31006KT 280V340 9999 SCT015 BKN023 06/03 Q1004 NOSIG
16:00
M
6 °C 10 km+ 2.300 ft 300° 300° 5 kt METAR LYKV 171400Z 30005KT 280V340 9999 SCT015 BKN023 06/03 Q1004 NOSIG
15:30
M
6 °C 10 km+ 2.700 ft 310° 310° 6 kt METAR LYKV 171330Z 31006KT 270V340 9999 SCT015 BKN027 06/03 Q1004 NOSIG
15:00
V
6 °C 10 km+ 3.300 ft 320° 320° 3 kt METAR LYKV 171300Z 32003KT 220V020 9999 SCT015 BKN033 06/03 Q1004 NOSIG
14:30
M
5 °C 10 km+ 3.000 ft 280° 280° 3 kt METAR LYKV 171230Z 28003KT 240V360 9999 SCT013 BKN030 05/03 Q1004 NOSIG
14:00
M
5 °C 10 km+ 3.000 ft 290° 290° 3 kt METAR LYKV 171200Z 29003KT 250V350 9999 SCT013 BKN030 05/03 Q1004 NOSIG
13:30
M
4 °C 10 km+ 2.700 ft 300° 300° 3 kt METAR LYKV 171130Z 30003KT 250V350 9999 SCT010 BKN027 04/02 Q1004 NOSIG
13:00
M
4 °C 10 km+ 2.700 ft 300° 300° 3 kt METAR LYKV 171100Z 30003KT 250V340 9999 SCT010 BKN027 04/02 Q1005 NOSIG
12:30
M
4 °C 10 km+ 2.700 ft Var Var 2 kt METAR LYKV 171030Z VRB02KT 9999 SCT010 BKN027 04/02 Q1005 NOSIG
12:00
M
3 °C 10 km+ 2.700 ft Var Var 2 kt METAR LYKV 171000Z VRB02KT 9999 SCT010 BKN027 03/02 Q1005 NOSIG
11:30
M
2 °C 8 km 1.000 ft Var Var 1 kt METAR LYKV 170930Z VRB01KT 8000 -RA SCT004 BKN010 BKN023 02/02 Q1005 NOSIG
11:00
M
2 °C 8 km 1.000 ft 360° 360° 0 kt METAR LYKV 170900Z 00000KT 8000 -RA SCT004 BKN010 BKN023 02/01 Q1005 NOSIG
10:30
M
1 °C 8 km 1.000 ft 290° 290° 3 kt METAR LYKV 170830Z 29003KT 240V320 8000 -RA SCT004 BKN010 BKN027 01/01 Q1005 NOSIG
10:00
M
1 °C 6 km 1.000 ft 360° 360° 0 kt METAR LYKV 170800Z 00000KT 6000 -RA SCT004 BKN010 BKN027 01/00 Q1004 NOSIG
09:30
I
0 °C 6 km 700 ft Var Var 2 kt METAR LYKV 170730Z VRB02KT 6000 -RA BKN007 BKN023 00/M00 Q1005 RESN NOSIG
09:00
I
3 °C 6 km 700 ft 300° 300° 9 kt METAR LYKV 170700Z 30009KT 260V330 6000 RA BKN007 BKN027 03/02 Q1005 NOSIG
08:30
M
4 °C 6 km 1.000 ft 300° 300° 10 kt METAR LYKV 170630Z 30010KT 270V330 6000 RA BKN010 BKN027 04/03 Q1005 NOSIG
08:00
M
5 °C 6 km 1.000 ft 300° 300° 8 kt METAR LYKV 170600Z 30008KT 260V320 6000 RA BKN010 BKN027 05/04 Q1004 NOSIG
07:30
M
5 °C 8 km 1.000 ft 300° 300° 7 kt METAR LYKV 170530Z 30007KT 8000 -RA BKN010 BKN027 05/04 Q1004 NOSIG
07:00
M
5 °C 8 km 1.000 ft 300° 300° 5 kt METAR LYKV 170500Z 30005KT 270V330 8000 -RA BKN010 BKN027 05/04 Q1003 NOSIG
06:30
M
5 °C 8 km 1.000 ft 300° 300° 5 kt METAR LYKV 170430Z 30005KT 8000 -RA BKN010 BKN030 05/04 Q1003 NOSIG
06:00
M
5 °C 8 km 1.300 ft 290° 290° 5 kt METAR LYKV 170400Z 29005KT 8000 -RA BKN013 BKN030 05/04 Q1003 NOSIG
05:30
M
5 °C 8 km 1.300 ft 300° 300° 5 kt METAR LYKV 170330Z 30005KT 280V340 8000 BKN013 BKN030 05/04 Q1003 NOSIG
05:00
M
5 °C 8 km 1.300 ft 290° 290° 5 kt METAR LYKV 170300Z 29005KT 8000 BKN013 BKN030 05/04 Q1003 NOSIG
04:30
M
5 °C 7 km 1.300 ft 290° 290° 3 kt METAR LYKV 170230Z 29003KT 240V310 7000 BKN013 BKN030 05/04 Q1003 NOSIG
04:00
M
5 °C 7 km 1.300 ft 300° 300° 4 kt METAR LYKV 170200Z 30004KT 280V350 7000 BKN013 BKN030 05/04 Q1004 NOSIG
03:30
M
5 °C 10 km+ 3.000 ft 300° 300° 5 kt METAR LYKV 170130Z 30005KT 270V330 9999 -RA SCT013 BKN030 05/04 Q1004 NOSIG
03:00
M
5 °C 10 km+ 3.000 ft 300° 300° 5 kt METAR LYKV 170100Z 30005KT 9999 -RA SCT013 BKN030 05/04 Q1004 NOSIG
02:30
M
5 °C 10 km+ 3.000 ft 300° 300° 6 kt METAR LYKV 170030Z 30006KT 270V330 9999 -RA SCT013 BKN030 05/04 Q1005 NOSIG
02:00
M
6 °C 10 km+ 3.000 ft 300° 300° 5 kt METAR LYKV 170000Z 30005KT 9999 -RA SCT013 BKN030 06/05 Q1005 NOSIG
01:30
M
6 °C 10 km+ 3.000 ft 300° 300° 7 kt METAR LYKV 162330Z 30007KT 270V330 9999 -RA SCT013 BKN030 06/05 Q1005 NOSIG
01:00
M
6 °C 10 km+ 3.000 ft 300° 300° 7 kt METAR LYKV 162300Z 30007KT 280V340 9999 -RA SCT013 BKN030 06/05 Q1005 NOSIG
00:30
M
6 °C 10 km+ 3.000 ft 300° 300° 7 kt METAR LYKV 162230Z 30007KT 270V330 9999 -RA SCT013 BKN030 06/05 Q1006 NOSIG
00:00
M
6 °C 10 km+ 3.000 ft 310° 310° 6 kt METAR LYKV 162200Z 31006KT 280V340 9999 -RA SCT013 BKN030 06/05 Q1006 NOSIG

2024年4月16日

时间 代码 天气 温度 能见度 天花板 METAR/SPECI
23:30
M
7 °C 10 km+ 3.000 ft 300° 300° 6 kt METAR LYKV 162130Z 30006KT 260V330 9999 -RA SCT013 BKN030 07/06 Q1006 RERA NOSIG
23:00
M
7 °C 10 km+ 3.000 ft 290° 290° 7 kt METAR LYKV 162100Z 29007KT 260V340 9999 RA SCT013 BKN030 07/06 Q1006 NOSIG
22:30
M
7 °C 10 km+ 3.000 ft 300° 300° 10 kt METAR LYKV 162030Z 30010KT 260V330 9999 RA SCT013 BKN030 07/06 Q1006 NOSIG
22:00
M
8 °C 8 km 3.000 ft 310° 310° 9 kt METAR LYKV 162000Z 31009KT 8000 RA SCT013 BKN030 08/07 Q1006 NOSIG
21:30
M
8 °C 8 km 3.000 ft 300° 300° 5 kt METAR LYKV 161930Z 30005KT 250V340 8000 RA SCT015 BKN030 08/07 Q1006 NOSIG
21:00
M
9 °C 8 km 3.000 ft 290° 290° 7 kt METAR LYKV 161900Z 29007KT 260V320 8000 RA SCT015 BKN030 09/07 Q1006 NOSIG
20:30
V
10 °C 8 km 3.300 ft 300° 300° 9 kt METAR LYKV 161830Z 30009KT 270V340 8000 RA SCT015 BKN033 10/08 Q1005 NOSIG
20:00
V
12 °C 10 km+ 3.300 ft 300° 300° 11 kt METAR LYKV 161800Z 30011KT 270V330 9999 RA SCT015 BKN033 12/09 Q1004 NOSIG
19:30
V
14 °C 10 km+ - 290° 290° 14 kt METAR LYKV 161730Z 29014KT 250V320 9999 -RA FEW015 SCT033 14/09 Q1003 NOSIG
19:00
V
19 °C 10 km+ - 280° 280° 11 kt METAR LYKV 161700Z 28011KT 240V330 9999 FEW043 19/08 Q1001 NOSIG
18:30
V
23 °C 10 km+ - 250° 250° 11 kt METAR LYKV 161630Z 25011KT 210V290 9999 FEW045 23/06 Q1001 NOSIG
18:00
V
24 °C 10 km+ - 240° 240° 9 kt METAR LYKV 161600Z 24009KT 170V290 9999 FEW040 24/06 Q1000 BECMG 34016G26KT
17:00
V
25 °C 10 km+ - 230° 230° 10 - 21 kt METAR LYKV 161500Z 23010G21KT 9999 FEW060 25/06 Q1000 NOSIG
16:30
V
25 °C 10 km+ - 230° 230° 8 kt METAR LYKV 161430Z 23008KT 140V290 9999 FEW060 25/07 Q1000 NOSIG
16:00
V
25 °C 10 km+ - 200° 200° 3 kt METAR LYKV 161400Z 20003KT 160V240 9999 FEW060 25/09 Q1000 NOSIG
15:30
V
25 °C 10 km+ - 220° 220° 3 kt METAR LYKV 161330Z 22003KT 140V290 9999 FEW060 25/09 Q1001 NOSIG
15:00
V
25 °C 10 km+ - 220° 220° 10 kt METAR LYKV 161300Z 22010KT 170V280 9999 FEW060 25/09 Q1001 NOSIG
14:30
V
25 °C 10 km+ - 080° 080° 4 kt METAR LYKV 161230Z 08004KT 9999 FEW060 25/10 Q1002 NOSIG
14:00
V
24 °C 10 km+ - 100° 100° 7 kt METAR LYKV 161200Z 10007KT 070V130 9999 FEW060 24/09 Q1002 NOSIG
13:30
V
24 °C 10 km+ - 110° 110° 5 kt METAR LYKV 161130Z 11005KT 080V140 9999 FEW060 24/09 Q1002 NOSIG
13:00
V
25 °C 10 km+ - 120° 120° 6 kt METAR LYKV 161100Z 12006KT CAVOK 25/09 Q1003 NOSIG
12:30
V
25 °C 10 km+ - 130° 130° 3 kt METAR LYKV 161030Z 13003KT 080V170 CAVOK 25/11 Q1003 NOSIG
12:00
V
23 °C 10 km+ - Var Var 2 kt METAR LYKV 161000Z VRB02KT CAVOK 23/11 Q1004 NOSIG
11:30
V
22 °C 10 km+ - Var Var 2 kt METAR LYKV 160930Z VRB02KT CAVOK 22/13 Q1004 NOSIG
11:00
V
22 °C 10 km+ - Var Var 1 kt METAR LYKV 160900Z VRB01KT CAVOK 22/11 Q1004 NOSIG
10:30
V
21 °C 10 km+ - 360° 360° 0 kt METAR LYKV 160830Z 00000KT CAVOK 21/12 Q1005 NOSIG
10:00
V
19 °C 10 km+ - Var Var 2 kt METAR LYKV 160800Z VRB02KT CAVOK 19/13 Q1004 NOSIG
09:30
V
18 °C 10 km+ - Var Var 2 kt METAR LYKV 160730Z VRB02KT CAVOK 18/13 Q1005 NOSIG
09:00
V
18 °C 10 km+ - Var Var 1 kt METAR LYKV 160700Z VRB01KT CAVOK 18/12 Q1005 NOSIG
08:30
V
18 °C 10 km+ - Var Var 1 kt METAR LYKV 160630Z VRB01KT CAVOK 18/12 Q1005 NOSIG
08:00
V
17 °C 10 km+ - Var Var 1 kt METAR LYKV 160600Z VRB01KT CAVOK 17/10 Q1006 NOSIG
07:30
V
16 °C 10 km+ - Var Var 1 kt METAR LYKV 160530Z VRB01KT CAVOK 16/09 Q1006 NOSIG
07:00
V
17 °C 10 km+ - Var Var 1 kt METAR LYKV 160500Z VRB01KT CAVOK 17/07 Q1006 NOSIG
06:30
V
17 °C 10 km+ - 050° 050° 3 kt METAR LYKV 160430Z 05003KT 330V100 CAVOK 17/07 Q1006 NOSIG
06:00
V
16 °C 10 km+ - 150° 150° 6 kt METAR LYKV 160400Z 15006KT 140V200 CAVOK 16/08 Q1006 NOSIG
05:30
V
16 °C 10 km+ - Var Var 1 kt METAR LYKV 160330Z VRB01KT CAVOK 16/08 Q1006 NOSIG
05:00
V
17 °C 10 km+ - 360° 360° 0 kt METAR LYKV 160300Z 00000KT CAVOK 17/07 Q1006 NOSIG
04:30
V
18 °C 10 km+ - 140° 140° 3 kt METAR LYKV 160230Z 14003KT CAVOK 18/07 Q1007 NOSIG
04:00
V
18 °C 10 km+ - 110° 110° 1 kt METAR LYKV 160200Z 11001KT CAVOK 18/06 Q1007 NOSIG
03:30
V
20 °C 10 km+ - Var Var 2 kt METAR LYKV 160130Z VRB02KT CAVOK 20/06 Q1007 NOSIG
03:00
V
20 °C 10 km+ - Var Var 1 kt METAR LYKV 160100Z VRB01KT CAVOK 20/06 Q1008 NOSIG
02:30
V
22 °C 10 km+ - 260° 260° 3 kt METAR LYKV 160030Z 26003KT 170V330 CAVOK 22/05 Q1008 NOSIG
02:00
V
22 °C 10 km+ - 250° 250° 5 kt METAR LYKV 160000Z 25005KT 200V340 CAVOK 22/05 Q1009 NOSIG
01:30
V
22 °C 10 km+ - 260° 260° 5 kt METAR LYKV 152330Z 26005KT 220V330 CAVOK 22/04 Q1009 NOSIG
01:00
V
21 °C 10 km+ - 260° 260° 4 kt METAR LYKV 152300Z 26004KT 200V010 CAVOK 21/05 Q1009 NOSIG
00:30
V
22 °C 10 km+ - Var Var 2 kt METAR LYKV 152230Z VRB02KT CAVOK 22/04 Q1008 NOSIG
00:00
V
22 °C 10 km+ - 360° 360° 0 kt METAR LYKV 152200Z 00000KT CAVOK 22/04 Q1008 NOSIG

2024年4月15日

时间 代码 天气 温度 能见度 天花板 METAR/SPECI
23:30
V
21 °C 10 km+ - Var Var 1 kt METAR LYKV 152130Z VRB01KT CAVOK 21/04 Q1009 NOSIG
23:00
V
22 °C 10 km+ - Var Var 2 kt METAR LYKV 152100Z VRB02KT CAVOK 22/05 Q1009 NOSIG
22:30
V
22 °C 10 km+ - Var Var 2 kt METAR LYKV 152030Z VRB02KT CAVOK 22/05 Q1009 NOSIG
22:00
V
23 °C 10 km+ - Var Var 1 kt METAR LYKV 152000Z VRB01KT CAVOK 23/05 Q1009 NOSIG
21:30
V
23 °C 10 km+ - 190° 190° 6 kt METAR LYKV 151930Z 19006KT 150V220 CAVOK 23/05 Q1010 NOSIG
21:00
V
24 °C 10 km+ - 190° 190° 7 kt METAR LYKV 151900Z 19007KT 150V250 CAVOK 24/04 Q1009 NOSIG
20:30
V
25 °C 10 km+ - 190° 190° 6 kt METAR LYKV 151830Z 19006KT 150V220 CAVOK 25/04 Q1009 NOSIG
20:00
V
24 °C 10 km+ - 200° 200° 6 kt METAR LYKV 151800Z 20006KT 170V240 CAVOK 24/04 Q1009 NOSIG
19:30
V
24 °C 10 km+ - 230° 230° 5 kt METAR LYKV 151730Z 23005KT 190V270 CAVOK 24/04 Q1009 NOSIG
19:00
V
26 °C 10 km+ - Var Var 7 kt METAR LYKV 151700Z VRB07KT CAVOK 26/05 Q1009 NOSIG
18:30
V
26 °C 10 km+ - 230° 230° 6 kt METAR LYKV 151630Z 23006KT 190V280 CAVOK 26/06 Q1009 NOSIG
18:00
V
26 °C 10 km+ - 230° 230° 4 kt METAR LYKV 151600Z 23004KT 140V250 CAVOK 26/07 Q1009 NOSIG
17:30
V
28 °C 10 km+ - 280° 280° 3 kt METAR LYKV 151530Z 28003KT 170V330 CAVOK 28/10 Q1009 NOSIG
17:00
V
28 °C 10 km+ - 160° 160° 3 kt METAR LYKV 151500Z 16003KT CAVOK 28/11 Q1009 NOSIG
16:30
V
28 °C 10 km+ - 160° 160° 4 kt METAR LYKV 151430Z 16004KT 110V190 CAVOK 28/11 Q1010 NOSIG
16:00
V
28 °C 10 km+ - 150° 150° 3 kt METAR LYKV 151400Z 15003KT CAVOK 28/09 Q1010 NOSIG
15:30
V
28 °C 10 km+ - 150° 150° 4 kt METAR LYKV 151330Z 15004KT CAVOK 28/10 Q1010 NOSIG
15:00
V
29 °C 10 km+ - 150° 150° 3 kt METAR LYKV 151300Z 15003KT 130V200 CAVOK 29/07 Q1011 NOSIG
14:30
V
30 °C 10 km+ - Var Var 2 kt METAR LYKV 151230Z VRB02KT CAVOK 30/05 Q1011 NOSIG
14:00
V
30 °C 10 km+ - Var Var 2 kt METAR LYKV 151200Z VRB02KT CAVOK 30/06 Q1012 NOSIG
13:30
V
29 °C 10 km+ - Var Var 2 kt METAR LYKV 151130Z VRB02KT CAVOK 29/06 Q1012 NOSIG
13:00
V
28 °C 10 km+ - Var Var 1 kt METAR LYKV 151100Z VRB01KT CAVOK 28/05 Q1013 BECMG FM1130 25012KT
12:30
V
28 °C 10 km+ - Var Var 1 kt METAR LYKV 151030Z VRB01KT CAVOK 28/07 Q1014 BECMG FM1130 25012KT
12:00
V
26 °C 10 km+ - 360° 360° 0 kt METAR LYKV 151000Z 00000KT CAVOK 26/10 Q1014 BECMG FM1030 25012KT
11:30
V
25 °C 10 km+ - Var Var 1 kt METAR LYKV 150930Z VRB01KT CAVOK 25/11 Q1015 BECMG FM1030 25012KT
11:00
V
23 °C 10 km+ - Var Var 2 kt METAR LYKV 150900Z VRB02KT CAVOK 23/10 Q1015 NOSIG
10:30
V
21 °C 10 km+ - Var Var 1 kt METAR LYKV 150830Z VRB01KT CAVOK 21/10 Q1016 NOSIG
10:00
V
20 °C 10 km+ - 360° 360° 0 kt METAR LYKV 150800Z 00000KT CAVOK 20/10 Q1016 NOSIG
09:30
V
18 °C 10 km+ - Var Var 1 kt METAR LYKV 150730Z VRB01KT CAVOK 18/10 Q1016 NOSIG
09:00
V
15 °C 10 km+ - Var Var 1 kt METAR LYKV 150700Z VRB01KT CAVOK 15/10 Q1016 NOSIG
08:30
V
13 °C 10 km+ - Var Var 1 kt METAR LYKV 150630Z VRB01KT CAVOK 13/10 Q1016 NOSIG
08:00
V
11 °C 10 km+ - 360° 360° 0 kt METAR LYKV 150600Z 00000KT CAVOK 11/09 Q1017 NOSIG
报告变更